createdAt,value
2022-08-07T00:00:31.374Z,47.31
2022-08-07T00:02:57.892Z,47.00
2022-08-07T00:05:25.407Z,47.06
2022-08-07T00:07:59.959Z,47.00
2022-08-07T00:10:29.666Z,46.97
2022-08-07T00:13:00.166Z,47.22
2022-08-07T00:15:38.664Z,46.97
2022-08-07T00:18:19.195Z,47.17
2022-08-07T00:20:46.620Z,47.21
2022-08-07T00:23:14.826Z,47.25
2022-08-07T00:25:45.762Z,47.16
2022-08-07T00:28:22.105Z,47.34
2022-08-07T00:30:48.681Z,47.01
2022-08-07T00:33:15.621Z,46.96
2022-08-07T00:35:45.395Z,47.05
2022-08-07T00:38:15.487Z,47.35
2022-08-07T00:40:41.905Z,46.91
2022-08-07T00:43:59.042Z,47.05
2022-08-07T00:46:00.228Z,46.88
2022-08-07T00:48:31.932Z,46.93
2022-08-07T00:50:59.769Z,47.31
2022-08-07T00:53:26.655Z,47.12
2022-08-07T00:56:00.442Z,47.24
2022-08-07T00:58:28.435Z,47.14
2022-08-07T01:00:54.812Z,47.19
2022-08-07T01:03:25.489Z,47.05
2022-08-07T01:06:08.602Z,47.24
2022-08-07T01:08:35.094Z,47.17
2022-08-07T01:12:04.851Z,46.96
2022-08-07T01:13:55.624Z,46.98
2022-08-07T01:16:30.186Z,46.87
2022-08-07T01:18:58.373Z,46.68
2022-08-07T01:21:26.079Z,46.95
2022-08-07T01:23:55.042Z,46.73
2022-08-07T01:26:23.320Z,46.89
2022-08-07T01:28:54.419Z,46.93
2022-08-07T01:31:27.723Z,46.78
2022-08-07T01:34:07.386Z,46.58
2022-08-07T01:36:40.434Z,46.58
2022-08-07T01:39:09.531Z,46.74
2022-08-07T01:41:38.876Z,46.57
2022-08-07T01:44:07.675Z,46.55
2022-08-07T01:46:34.572Z,46.45
2022-08-07T01:49:02.387Z,46.63
2022-08-07T01:52:03.158Z,46.58
2022-08-07T01:54:21.884Z,46.27
2022-08-07T01:57:28.205Z,46.61
2022-08-07T02:00:00.911Z,46.29
2022-08-07T02:03:12.387Z,46.45
2022-08-07T02:05:48.380Z,46.30
2022-08-07T02:08:23.784Z,46.53
2022-08-07T02:10:58.085Z,46.20
2022-08-07T02:13:57.964Z,46.38
2022-08-07T02:16:16.557Z,46.29
2022-08-07T02:18:48.644Z,46.37
2022-08-07T02:21:19.705Z,46.06
2022-08-07T02:23:46.477Z,46.19
2022-08-07T02:26:32.743Z,46.10
2022-08-07T02:29:02.237Z,46.09
2022-08-07T02:31:29.638Z,46.14
2022-08-07T02:34:04.212Z,45.97
2022-08-07T02:36:39.455Z,46.25
2022-08-07T02:39:16.451Z,46.06
2022-08-07T02:41:50.788Z,46.35
2022-08-07T02:44:23.612Z,46.23
2022-08-07T02:46:54.539Z,45.91
2022-08-07T02:49:56.376Z,46.18
2022-08-07T02:52:13.856Z,46.07
2022-08-07T02:54:41.663Z,46.34
2022-08-07T02:57:13.460Z,45.93
2022-08-07T02:59:45.407Z,46.14
2022-08-07T03:02:22.374Z,46.11
2022-08-07T03:04:50.752Z,46.06
2022-08-07T03:07:21.546Z,46.28
2022-08-07T03:10:06.300Z,45.85
2022-08-07T03:12:35.778Z,46.29
2022-08-07T03:15:07.733Z,46.13
2022-08-07T03:17:53.080Z,46.10
2022-08-07T03:20:21.755Z,45.73
2022-08-07T03:22:50.276Z,45.86
2022-08-07T03:25:18.191Z,45.64
2022-08-07T03:28:09.167Z,45.84
2022-08-07T03:30:37.146Z,45.85
2022-08-07T03:33:08.543Z,45.69
2022-08-07T03:35:49.967Z,45.92
2022-08-07T03:38:17.863Z,45.74
2022-08-07T03:40:53.948Z,45.84
2022-08-07T03:43:26.565Z,45.63
2022-08-07T03:45:53.560Z,45.86
2022-08-07T03:48:20.494Z,45.78
2022-08-07T03:50:56.009Z,45.77
2022-08-07T03:54:01.669Z,45.47
2022-08-07T03:56:13.657Z,45.82
2022-08-07T03:59:09.019Z,45.49
2022-08-07T04:01:28.776Z,45.68
2022-08-07T04:03:55.594Z,45.47
2022-08-07T04:06:36.223Z,45.84
2022-08-07T04:09:04.938Z,45.50
2022-08-07T04:12:25.003Z,45.56
2022-08-07T04:14:37.865Z,45.84
2022-08-07T04:17:19.784Z,45.70
2022-08-07T04:19:54.805Z,45.60
2022-08-07T04:22:27.483Z,45.48
2022-08-07T04:24:57.996Z,45.61
2022-08-07T04:27:25.732Z,45.74
2022-08-07T04:30:01.718Z,45.67
2022-08-07T04:32:34.644Z,45.51
2022-08-07T04:35:06.421Z,45.94
2022-08-07T04:37:52.852Z,45.93
2022-08-07T04:40:26.755Z,45.59
2022-08-07T04:43:02.005Z,45.74
2022-08-07T04:45:57.732Z,45.94
2022-08-07T04:48:28.123Z,45.79
2022-08-07T04:51:21.336Z,45.80
2022-08-07T04:54:06.962Z,45.79
2022-08-07T04:58:09.808Z,45.63
2022-08-07T05:00:12.687Z,45.87
2022-08-07T05:02:49.216Z,45.75
2022-08-07T05:05:52.950Z,46.08
2022-08-07T05:09:00.006Z,45.95
2022-08-07T05:11:57.510Z,46.18
2022-08-07T05:14:56.442Z,46.58
2022-08-07T05:18:00.543Z,46.70
2022-08-07T05:20:09.572Z,47.05
2022-08-07T05:22:39.161Z,47.09
2022-08-07T05:25:08.654Z,46.95
2022-08-07T05:28:15.820Z,46.94
2022-08-07T05:30:32.858Z,46.77
2022-08-07T05:33:02.515Z,46.92
2022-08-07T05:35:33.382Z,47.14
2022-08-07T05:38:09.971Z,46.78
2022-08-07T05:40:49.541Z,46.67
2022-08-07T05:43:18.655Z,47.16
2022-08-07T05:45:48.314Z,47.41
2022-08-07T05:48:15.517Z,47.72
2022-08-07T05:50:46.368Z,47.56
2022-08-07T05:54:13.097Z,47.67
2022-08-07T05:56:02.063Z,47.67
2022-08-07T05:58:36.270Z,47.95
2022-08-07T06:01:06.141Z,48.23
2022-08-07T06:03:56.902Z,48.05
2022-08-07T06:06:29.902Z,48.18
2022-08-07T06:08:59.344Z,48.09
2022-08-07T06:11:26.297Z,48.05
2022-08-07T06:14:11.595Z,47.76
2022-08-07T06:16:40.240Z,47.76
2022-08-07T06:19:08.007Z,47.93
2022-08-07T06:22:16.359Z,48.12
2022-08-07T06:24:45.570Z,47.99
2022-08-07T06:27:43.960Z,48.21
2022-08-07T06:30:08.828Z,47.85
2022-08-07T06:32:55.198Z,48.14
2022-08-07T06:35:21.906Z,47.87
2022-08-07T06:37:49.018Z,47.70
2022-08-07T06:40:21.570Z,47.87
2022-08-07T06:42:49.936Z,48.08
2022-08-07T06:45:21.207Z,48.16
2022-08-07T06:47:58.648Z,47.40
2022-08-07T06:50:27.046Z,47.40
2022-08-07T06:52:58.315Z,47.11
2022-08-07T06:55:53.933Z,47.02
2022-08-07T06:58:17.816Z,46.92
2022-08-07T07:00:48.915Z,47.36
2022-08-07T07:03:26.307Z,48.05
2022-08-07T07:06:11.211Z,48.05
2022-08-07T07:08:39.753Z,47.84
2022-08-07T07:12:07.969Z,48.22
2022-08-07T07:14:02.464Z,47.96
2022-08-07T07:16:34.030Z,48.50
2022-08-07T07:19:56.156Z,48.28
2022-08-07T07:22:11.820Z,48.20
2022-08-07T07:24:58.497Z,48.62
2022-08-07T07:27:35.797Z,48.38
2022-08-07T07:30:37.796Z,48.70
2022-08-07T07:33:11.523Z,48.88
2022-08-07T07:35:54.513Z,49.05
2022-08-07T07:38:28.722Z,48.97
2022-08-07T07:41:02.121Z,49.21
2022-08-07T07:43:47.848Z,49.34
2022-08-07T07:46:37.488Z,49.10
2022-08-07T07:49:08.985Z,49.27
2022-08-07T07:51:59.577Z,49.27
2022-08-07T07:54:28.016Z,49.58
2022-08-07T07:56:57.304Z,49.89
2022-08-07T07:59:51.638Z,49.84
2022-08-07T08:02:34.044Z,49.71
2022-08-07T08:05:04.091Z,49.71
2022-08-07T08:07:35.959Z,49.81
2022-08-07T08:10:14.960Z,49.83
2022-08-07T08:13:00.490Z,50.32
2022-08-07T08:18:24.244Z,49.99
2022-08-07T08:18:36.321Z,50.17
2022-08-07T08:20:51.923Z,49.94
2022-08-07T08:23:40.208Z,50.26
2022-08-07T08:26:26.508Z,50.29
2022-08-07T08:28:55.715Z,50.26
2022-08-07T08:31:59.328Z,50.43
2022-08-07T08:34:19.030Z,50.31
2022-08-07T08:36:57.930Z,50.08
2022-08-07T08:39:39.860Z,50.08
2022-08-07T08:42:40.253Z,50.27
2022-08-07T08:45:42.067Z,49.51
2022-08-07T08:48:40.920Z,49.40
2022-08-07T08:51:26.063Z,49.90
2022-08-07T08:54:15.884Z,50.41
2022-08-07T08:56:49.745Z,49.15
2022-08-07T08:59:48.020Z,49.08
2022-08-07T09:02:36.554Z,48.47
2022-08-07T09:05:37.395Z,48.19
2022-08-07T09:08:31.671Z,47.75
2022-08-07T09:11:43.014Z,47.57
2022-08-07T09:14:12.490Z,48.04
2022-08-07T09:16:57.412Z,48.06
2022-08-07T09:19:52.829Z,47.82
2022-08-07T09:24:33.424Z,46.84
2022-08-07T09:25:25.591Z,46.54
2022-08-07T09:28:05.094Z,46.38
2022-08-07T09:30:54.991Z,46.08
2022-08-07T09:33:57.209Z,46.79
2022-08-07T09:36:35.451Z,47.00
2022-08-07T09:39:17.992Z,47.36
2022-08-07T09:42:33.424Z,47.77
2022-08-07T09:47:26.145Z,48.09
2022-08-07T09:48:30.206Z,48.55
2022-08-07T09:52:10.658Z,47.77
2022-08-07T09:54:21.242Z,47.20
2022-08-07T09:57:21.669Z,47.38
2022-08-07T10:00:14.386Z,47.50
2022-08-07T10:04:06.373Z,47.40
2022-08-07T10:06:55.858Z,48.00
2022-08-07T10:09:42.942Z,47.66
2022-08-07T10:12:53.190Z,47.97
2022-08-07T10:15:44.028Z,48.12
2022-08-07T10:18:17.236Z,48.54
2022-08-07T10:21:50.581Z,48.45
2022-08-07T10:24:50.901Z,48.71
2022-08-07T10:27:46.097Z,48.63
2022-08-07T10:30:18.517Z,48.79
2022-08-07T10:33:14.787Z,48.98
2022-08-07T10:36:11.017Z,48.83
2022-08-07T10:38:51.194Z,49.02
2022-08-07T10:41:51.680Z,48.89
2022-08-07T10:44:37.558Z,49.49
2022-08-07T10:47:27.010Z,49.63
2022-08-07T10:50:25.997Z,49.64
2022-08-07T10:52:55.558Z,49.62
2022-08-07T10:55:38.602Z,49.08
2022-08-07T10:58:40.242Z,48.12
2022-08-07T11:01:35.217Z,48.21
2022-08-07T11:04:40.699Z,47.17
2022-08-07T11:08:03.017Z,47.12
2022-08-07T11:10:38.058Z,46.71
2022-08-07T11:14:44.914Z,46.55
2022-08-07T11:16:33.467Z,46.37
2022-08-07T11:19:21.654Z,46.87
2022-08-07T11:22:06.188Z,46.38
2022-08-07T11:24:59.065Z,45.66
2022-08-07T11:28:03.070Z,46.00
2022-08-07T11:30:43.942Z,46.14
2022-08-07T11:33:54.354Z,46.10
2022-08-07T11:36:30.566Z,46.29
2022-08-07T11:39:19.743Z,46.49
2022-08-07T11:42:03.348Z,46.16
2022-08-07T11:44:52.760Z,46.50
2022-08-07T11:47:59.427Z,46.29
2022-08-07T11:50:57.381Z,46.51
2022-08-07T11:54:00.945Z,46.84
2022-08-07T11:56:40.575Z,46.79
2022-08-07T12:00:07.865Z,46.49
2022-08-07T12:02:30.917Z,46.62
2022-08-07T12:05:02.372Z,46.81
2022-08-07T12:07:40.995Z,46.57
2022-08-07T12:10:19.208Z,47.04
2022-08-07T12:13:02.956Z,46.81
2022-08-07T12:16:06.966Z,46.91
2022-08-07T12:18:45.125Z,46.85
2022-08-07T12:21:55.847Z,46.86
2022-08-07T12:24:37.719Z,46.28
2022-08-07T12:27:14.990Z,46.44
2022-08-07T12:29:53.664Z,46.81
2022-08-07T12:32:28.146Z,46.45
2022-08-07T12:34:59.110Z,46.71
2022-08-07T12:38:09.644Z,46.43
2022-08-07T12:40:46.336Z,46.48
2022-08-07T12:43:10.872Z,46.76
2022-08-07T12:45:59.004Z,46.58
2022-08-07T12:48:52.815Z,46.77
2022-08-07T12:51:46.667Z,47.08
2022-08-07T12:54:38.459Z,46.89
2022-08-07T12:57:10.261Z,47.13
2022-08-07T12:59:54.625Z,46.78
2022-08-07T13:02:49.467Z,46.80
2022-08-07T13:06:03.969Z,46.99
2022-08-07T13:08:33.149Z,47.03
2022-08-07T13:11:05.542Z,47.09
2022-08-07T13:13:50.071Z,47.26
2022-08-07T13:16:38.057Z,47.07
2022-08-07T13:19:18.375Z,46.82
2022-08-07T13:22:20.044Z,46.97
2022-08-07T13:25:02.738Z,47.22
2022-08-07T13:28:12.658Z,47.33
2022-08-07T13:30:48.958Z,47.70
2022-08-07T13:34:33.648Z,47.67
2022-08-07T13:36:49.004Z,47.76
2022-08-07T13:40:33.117Z,47.85
2022-08-07T13:42:25.492Z,47.95
2022-08-07T13:44:55.398Z,48.16
2022-08-07T13:48:06.886Z,48.13
2022-08-07T13:50:35.819Z,48.38
2022-08-07T13:53:19.354Z,48.40
2022-08-07T13:55:54.338Z,47.93
2022-08-07T13:58:43.359Z,48.07
2022-08-07T14:01:26.117Z,47.15
2022-08-07T14:04:07.633Z,47.46
2022-08-07T14:06:38.992Z,47.35
2022-08-07T14:09:09.785Z,47.18
2022-08-07T14:11:53.374Z,47.56
2022-08-07T14:14:41.453Z,47.63
2022-08-07T14:17:32.375Z,47.61
2022-08-07T14:20:40.525Z,47.99
2022-08-07T14:23:59.452Z,47.77
2022-08-07T14:26:29.925Z,47.25
2022-08-07T14:29:02.961Z,47.38
2022-08-07T14:31:43.116Z,47.54
2022-08-07T14:34:29.231Z,47.10
2022-08-07T14:36:59.245Z,47.04
2022-08-07T14:40:18.099Z,47.05
2022-08-07T14:42:31.438Z,47.16
2022-08-07T14:45:20.887Z,47.32
2022-08-07T14:47:49.128Z,47.29
2022-08-07T14:50:19.170Z,47.12
2022-08-07T14:52:50.263Z,47.38
2022-08-07T14:55:18.097Z,47.16
2022-08-07T14:57:58.716Z,47.37
2022-08-07T15:00:31.366Z,46.96
2022-08-07T15:05:54.720Z,47.06
2022-08-07T15:08:50.386Z,46.84
2022-08-07T15:14:22.587Z,47.20
2022-08-07T15:17:00.686Z,46.75
2022-08-07T15:20:30.879Z,46.51
2022-08-07T15:22:31.314Z,46.83
2022-08-07T15:25:16.979Z,46.54
2022-08-07T15:28:33.092Z,47.02
2022-08-07T15:31:04.959Z,46.77
2022-08-07T15:33:33.413Z,44.63
2022-08-07T15:36:05.681Z,45.13
2022-08-07T15:42:45.115Z,43.26
2022-08-07T15:44:17.071Z,44.48
2022-08-07T15:46:51.866Z,44.60
2022-08-07T15:49:25.709Z,44.87
2022-08-07T15:52:13.998Z,44.63
2022-08-07T15:54:48.128Z,44.55
2022-08-07T15:57:28.346Z,44.59
2022-08-07T16:00:31.227Z,43.80
2022-08-07T16:02:58.826Z,44.17
2022-08-07T16:05:31.133Z,43.08
2022-08-07T16:08:30.356Z,43.08
2022-08-07T16:11:26.844Z,42.78
2022-08-07T16:14:03.225Z,43.10
2022-08-07T16:17:00.084Z,43.55
2022-08-07T16:19:59.072Z,43.36
2022-08-07T16:22:55.132Z,43.55
2022-08-07T16:25:54.716Z,43.35
2022-08-07T16:30:08.882Z,43.79
2022-08-07T16:31:50.875Z,44.04
2022-08-07T16:34:48.167Z,43.83
2022-08-07T16:38:06.162Z,44.41
2022-08-07T16:40:30.788Z,44.53
2022-08-07T16:44:04.102Z,44.83
2022-08-07T16:47:09.539Z,44.78
2022-08-07T16:50:28.885Z,44.69
2022-08-07T16:54:01.644Z,45.17
2022-08-07T16:56:20.245Z,45.46
2022-08-07T16:59:10.961Z,45.56
2022-08-07T17:01:55.629Z,46.51
2022-08-07T17:04:36.836Z,47.17
2022-08-07T17:07:28.528Z,47.46
2022-08-07T17:10:38.301Z,47.42
2022-08-07T17:13:38.857Z,47.65
2022-08-07T17:16:25.795Z,47.23
2022-08-07T17:18:52.139Z,47.96
2022-08-07T17:21:23.430Z,48.29
2022-08-07T17:24:23.671Z,48.36
2022-08-07T17:27:08.576Z,47.80
2022-08-07T17:30:14.460Z,47.83
2022-08-07T17:34:08.952Z,48.19
2022-08-07T17:36:19.930Z,47.64
2022-08-07T17:39:10.079Z,47.77
2022-08-07T17:42:04.705Z,47.99
2022-08-07T17:44:52.206Z,47.46
2022-08-07T17:47:43.332Z,47.84
2022-08-07T17:50:18.969Z,47.84
2022-08-07T17:52:59.022Z,48.03
2022-08-07T17:55:55.076Z,47.77
2022-08-07T17:58:50.584Z,47.97
2022-08-07T18:01:29.112Z,47.98
2022-08-07T18:04:34.804Z,48.06
2022-08-07T18:07:19.991Z,48.18
2022-08-07T18:10:05.611Z,47.80
2022-08-07T18:13:11.618Z,47.81
2022-08-07T18:16:00.390Z,47.54
2022-08-07T18:18:47.731Z,47.85
2022-08-07T18:21:56.681Z,47.59
2022-08-07T18:24:36.530Z,47.27
2022-08-07T18:27:17.181Z,47.42
2022-08-07T18:30:06.129Z,48.12
2022-08-07T18:32:51.820Z,47.89
2022-08-07T18:36:02.999Z,48.18
2022-08-07T18:39:01.205Z,48.18
2022-08-07T18:42:16.324Z,48.32
2022-08-07T18:45:45.110Z,48.27
2022-08-07T18:48:09.982Z,48.08
2022-08-07T18:52:26.058Z,48.15
2022-08-07T18:54:30.733Z,47.85
2022-08-07T18:57:30.613Z,48.01
2022-08-07T19:00:04.465Z,48.29
2022-08-07T19:03:11.914Z,48.18
2022-08-07T19:06:01.852Z,48.49
2022-08-07T19:08:54.664Z,48.59
2022-08-07T19:11:37.347Z,48.85
2022-08-07T19:14:16.976Z,48.82
2022-08-07T19:17:06.742Z,48.94
2022-08-07T19:20:02.129Z,48.54
2022-08-07T19:22:38.204Z,49.04
2022-08-07T19:26:24.613Z,48.76
2022-08-07T19:28:57.738Z,48.83
2022-08-07T19:31:38.170Z,49.00
2022-08-07T19:34:08.111Z,48.91
2022-08-07T19:36:39.751Z,49.13
2022-08-07T19:39:09.270Z,49.20
2022-08-07T19:42:08.077Z,49.24
2022-08-07T19:44:42.981Z,49.01
2022-08-07T19:47:14.532Z,48.92
2022-08-07T19:49:56.739Z,49.34
2022-08-07T19:52:27.965Z,48.87
2022-08-07T19:54:57.256Z,49.28
2022-08-07T19:58:00.478Z,49.03
2022-08-07T20:00:35.638Z,49.21
2022-08-07T20:03:05.854Z,49.42
2022-08-07T20:06:02.285Z,49.22
2022-08-07T20:08:37.461Z,49.44
2022-08-07T20:11:10.242Z,48.99
2022-08-07T20:13:53.735Z,49.19
2022-08-07T20:16:35.060Z,49.32
2022-08-07T20:19:06.159Z,49.56
2022-08-07T20:21:42.316Z,49.47
2022-08-07T20:24:28.752Z,49.55
2022-08-07T20:27:02.302Z,49.73
2022-08-07T20:29:48.338Z,49.56
2022-08-07T20:32:25.688Z,49.34
2022-08-07T20:34:58.175Z,49.21
2022-08-07T20:37:46.714Z,49.58
2022-08-07T20:40:32.206Z,49.55
2022-08-07T20:43:14.773Z,49.35
2022-08-07T20:46:26.007Z,49.40
2022-08-07T20:48:57.997Z,49.48
2022-08-07T20:51:29.856Z,49.53
2022-08-07T20:54:08.688Z,49.82
2022-08-07T20:56:46.164Z,49.68
2022-08-07T21:00:04.452Z,49.92
2022-08-07T21:02:32.714Z,49.98
2022-08-07T21:05:01.691Z,49.82
2022-08-07T21:07:37.419Z,50.03
2022-08-07T21:10:11.608Z,49.85
2022-08-07T21:12:39.700Z,49.93
2022-08-07T21:15:10.616Z,50.00
2022-08-07T21:18:20.327Z,50.01
2022-08-07T21:20:37.811Z,49.94
2022-08-07T21:23:15.493Z,50.32
2022-08-07T21:26:13.900Z,50.11
2022-08-07T21:28:58.176Z,50.19
2022-08-07T21:32:10.839Z,50.21
2022-08-07T21:34:46.046Z,50.05
2022-08-07T21:37:21.645Z,50.05
2022-08-07T21:39:59.639Z,50.05
2022-08-07T21:42:55.804Z,50.31
2022-08-07T21:46:05.298Z,50.49
2022-08-07T21:48:48.317Z,50.47
2022-08-07T21:51:32.119Z,50.58
2022-08-07T21:54:24.955Z,50.47
2022-08-07T21:56:56.125Z,50.32
2022-08-07T22:00:03.198Z,50.55
2022-08-07T22:02:58.704Z,50.57
2022-08-07T22:05:44.471Z,50.55
2022-08-07T22:08:14.326Z,50.66
2022-08-07T22:10:50.188Z,50.72
2022-08-07T22:13:17.393Z,50.73
2022-08-07T22:16:45.109Z,50.40
2022-08-07T22:18:59.344Z,50.74
2022-08-07T22:22:02.291Z,50.71
2022-08-07T22:24:33.090Z,50.58
2022-08-07T22:27:06.352Z,50.63
2022-08-07T22:29:48.436Z,50.39
2022-08-07T22:32:38.594Z,50.66
2022-08-07T22:35:11.209Z,50.69
2022-08-07T22:38:04.363Z,50.56
2022-08-07T22:40:53.447Z,50.86
2022-08-07T22:43:48.680Z,50.44
2022-08-07T22:47:02.143Z,50.80
2022-08-07T22:49:37.804Z,50.91
2022-08-07T22:52:36.817Z,51.00
2022-08-07T22:55:29.901Z,50.70
2022-08-07T22:58:13.179Z,50.98
2022-08-07T23:00:57.591Z,50.97
2022-08-07T23:03:58.967Z,50.77
2022-08-07T23:06:54.784Z,50.68
2022-08-07T23:10:05.362Z,50.54
2022-08-07T23:12:50.225Z,50.79
2022-08-07T23:16:06.031Z,50.96
2022-08-07T23:19:11.399Z,51.02
2022-08-07T23:21:56.235Z,51.02
2022-08-07T23:24:47.693Z,50.76
2022-08-07T23:28:22.882Z,50.64
2022-08-07T23:31:06.616Z,50.70
2022-08-07T23:34:36.192Z,50.59
2022-08-07T23:37:19.052Z,51.03
2022-08-07T23:40:05.737Z,50.82
2022-08-07T23:42:53.328Z,50.93
2022-08-07T23:45:50.130Z,50.79
2022-08-07T23:48:35.268Z,50.88
2022-08-07T23:52:58.956Z,50.69
2022-08-07T23:54:19.514Z,50.88
2022-08-07T23:57:09.412Z,50.58
